createdAt,value
2022-07-26T00:00:44.701Z,16.99
2022-07-26T00:01:44.793Z,17.01
2022-07-26T00:02:47.750Z,16.97
2022-07-26T00:03:44.649Z,16.97
2022-07-26T00:04:44.642Z,16.93
2022-07-26T00:05:44.639Z,16.84
2022-07-26T00:06:44.657Z,16.89
2022-07-26T00:07:44.624Z,16.91
2022-07-26T00:08:44.620Z,16.91
2022-07-26T00:09:48.210Z,16.87
2022-07-26T00:10:45.602Z,16.94
2022-07-26T00:11:44.624Z,16.89
2022-07-26T00:12:44.591Z,16.79
2022-07-26T00:13:44.583Z,16.78
2022-07-26T00:14:44.579Z,16.78
2022-07-26T00:15:44.557Z,16.66
2022-07-26T00:16:44.616Z,16.72
2022-07-26T00:17:44.543Z,16.71
2022-07-26T00:18:44.539Z,16.78
2022-07-26T00:19:44.534Z,16.68
2022-07-26T00:20:44.529Z,16.72
2022-07-26T00:21:44.541Z,16.65
2022-07-26T00:22:44.507Z,16.61
2022-07-26T00:23:44.502Z,16.65
2022-07-26T00:24:44.491Z,16.54
2022-07-26T00:25:44.483Z,16.54
2022-07-26T00:26:44.503Z,16.57
2022-07-26T00:27:44.466Z,16.58
2022-07-26T00:28:44.461Z,16.38
2022-07-26T00:29:44.451Z,16.50
2022-07-26T00:30:44.448Z,16.39
2022-07-26T00:31:44.516Z,16.36
2022-07-26T00:32:44.427Z,16.35
2022-07-26T00:33:44.423Z,16.28
2022-07-26T00:34:44.415Z,16.20
2022-07-26T00:35:44.399Z,16.23
2022-07-26T00:36:44.422Z,16.20
2022-07-26T00:37:44.388Z,16.05
2022-07-26T00:38:44.380Z,16.24
2022-07-26T00:39:44.371Z,15.97
2022-07-26T00:40:44.362Z,16.00
2022-07-26T00:41:44.383Z,16.01
2022-07-26T00:42:44.349Z,15.94
2022-07-26T00:43:44.340Z,15.95
2022-07-26T00:44:44.331Z,15.90
2022-07-26T00:45:44.404Z,15.94
2022-07-26T00:46:44.341Z,15.84
2022-07-26T00:47:44.313Z,15.84
2022-07-26T00:48:44.339Z,15.95
2022-07-26T00:49:44.290Z,15.91
2022-07-26T00:50:44.288Z,15.77
2022-07-26T00:51:46.385Z,15.90
2022-07-26T00:52:44.273Z,15.90
2022-07-26T00:53:44.267Z,15.84
2022-07-26T00:54:44.255Z,15.80
2022-07-26T00:55:44.252Z,15.84
2022-07-26T00:56:44.263Z,15.83
2022-07-26T00:57:44.233Z,15.83
2022-07-26T00:58:44.516Z,15.84
2022-07-26T00:59:44.224Z,15.84
2022-07-26T01:00:44.206Z,15.92
2022-07-26T01:01:44.353Z,15.84
2022-07-26T01:02:44.317Z,15.91
2022-07-26T01:03:44.190Z,15.95
2022-07-26T01:04:44.185Z,15.90
2022-07-26T01:05:44.170Z,15.84
2022-07-26T01:06:44.186Z,15.80
2022-07-26T01:07:44.152Z,15.83
2022-07-26T01:08:44.152Z,15.79
2022-07-26T01:09:44.141Z,15.72
2022-07-26T01:10:44.132Z,15.73
2022-07-26T01:11:44.156Z,15.75
2022-07-26T01:12:44.115Z,15.73
2022-07-26T01:13:44.104Z,15.70
2022-07-26T01:14:44.101Z,15.72
2022-07-26T01:15:44.153Z,15.73
2022-07-26T01:16:44.110Z,15.61
2022-07-26T01:17:44.070Z,15.64
2022-07-26T01:18:44.075Z,15.72
2022-07-26T01:19:44.076Z,15.59
2022-07-26T01:20:44.046Z,15.54
2022-07-26T01:21:44.065Z,15.55
2022-07-26T01:22:44.033Z,15.62
2022-07-26T01:23:44.024Z,15.57
2022-07-26T01:24:44.025Z,15.52
2022-07-26T01:25:46.059Z,15.37
2022-07-26T01:26:44.030Z,15.51
2022-07-26T01:27:44.002Z,15.54
2022-07-26T01:28:43.988Z,15.44
2022-07-26T01:29:43.977Z,15.55
2022-07-26T01:30:43.970Z,15.40
2022-07-26T01:31:44.020Z,15.47
2022-07-26T01:32:43.949Z,15.42
2022-07-26T01:33:43.949Z,15.57
2022-07-26T01:34:43.935Z,15.47
2022-07-26T01:35:43.932Z,15.57
2022-07-26T01:36:43.940Z,15.55
2022-07-26T01:37:43.914Z,15.59
2022-07-26T01:38:43.898Z,15.58
2022-07-26T01:39:43.902Z,15.61
2022-07-26T01:40:43.883Z,15.58
2022-07-26T01:41:43.903Z,15.64
2022-07-26T01:42:43.871Z,15.55
2022-07-26T01:43:43.866Z,15.62
2022-07-26T01:44:43.861Z,15.61
2022-07-26T01:45:43.900Z,15.67
2022-07-26T01:46:43.894Z,15.55
2022-07-26T01:47:43.839Z,15.62
2022-07-26T01:48:43.862Z,15.64
2022-07-26T01:49:43.814Z,15.67
2022-07-26T01:50:43.807Z,15.75
2022-07-26T01:51:43.830Z,15.73
2022-07-26T01:52:43.791Z,15.79
2022-07-26T01:53:43.786Z,15.77
2022-07-26T01:54:43.779Z,15.88
2022-07-26T01:55:43.769Z,15.84
2022-07-26T01:56:43.790Z,15.92
2022-07-26T01:57:43.760Z,15.83
2022-07-26T01:58:43.749Z,15.91
2022-07-26T01:59:43.752Z,16.01
2022-07-26T02:00:43.743Z,16.01
2022-07-26T02:01:43.784Z,16.00
2022-07-26T02:02:43.787Z,16.08
2022-07-26T02:03:43.713Z,16.13
2022-07-26T02:04:43.702Z,16.26
2022-07-26T02:05:43.692Z,16.29
2022-07-26T02:06:43.725Z,16.32
2022-07-26T02:07:44.500Z,16.28
2022-07-26T02:08:43.666Z,16.33
2022-07-26T02:09:43.661Z,16.28
2022-07-26T02:10:43.653Z,16.21
2022-07-26T02:11:43.670Z,16.16
2022-07-26T02:12:43.642Z,16.21
2022-07-26T02:13:43.634Z,16.21
2022-07-26T02:14:43.631Z,16.15
2022-07-26T02:15:43.651Z,16.15
2022-07-26T02:16:43.642Z,16.01
2022-07-26T02:17:43.603Z,16.08
2022-07-26T02:18:43.597Z,16.04
2022-07-26T02:19:43.583Z,16.13
2022-07-26T02:20:43.573Z,16.02
2022-07-26T02:21:43.605Z,16.04
2022-07-26T02:22:43.565Z,16.10
2022-07-26T02:23:43.551Z,16.00
2022-07-26T02:24:43.549Z,16.09
2022-07-26T02:25:43.544Z,16.09
2022-07-26T02:26:43.535Z,16.05
2022-07-26T02:27:43.553Z,16.00
2022-07-26T02:28:43.516Z,16.02
2022-07-26T02:29:43.511Z,16.08
2022-07-26T02:30:43.566Z,16.04
2022-07-26T02:31:48.357Z,15.98
2022-07-26T02:32:44.511Z,15.90
2022-07-26T02:33:43.484Z,15.97
2022-07-26T02:34:43.474Z,15.92
2022-07-26T02:35:43.464Z,15.95
2022-07-26T02:36:43.453Z,15.92
2022-07-26T02:37:43.863Z,15.95
2022-07-26T02:38:43.439Z,15.92
2022-07-26T02:39:43.427Z,15.97
2022-07-26T02:40:43.434Z,15.88
2022-07-26T02:41:43.419Z,15.88
2022-07-26T02:42:43.435Z,15.98
2022-07-26T02:43:43.410Z,15.94
2022-07-26T02:44:43.394Z,16.00
2022-07-26T02:45:43.392Z,15.88
2022-07-26T02:46:43.431Z,15.95
2022-07-26T02:47:43.399Z,15.98
2022-07-26T02:48:43.379Z,15.95
2022-07-26T02:49:43.354Z,16.00
2022-07-26T02:50:43.351Z,16.04
2022-07-26T02:51:43.340Z,16.02
2022-07-26T02:52:43.362Z,16.05
2022-07-26T02:53:43.694Z,16.01
2022-07-26T02:54:43.308Z,15.95
2022-07-26T02:55:43.305Z,16.10
2022-07-26T02:56:43.303Z,16.02
2022-07-26T02:57:46.020Z,16.05
2022-07-26T02:58:43.283Z,16.00
2022-07-26T02:59:43.278Z,16.08
2022-07-26T03:00:43.263Z,16.02
2022-07-26T03:01:43.326Z,15.98
2022-07-26T03:02:43.381Z,16.05
2022-07-26T03:03:48.588Z,15.97
2022-07-26T03:04:45.228Z,15.90
2022-07-26T03:05:43.227Z,15.88
2022-07-26T03:06:43.217Z,15.76
2022-07-26T03:07:43.237Z,15.79
2022-07-26T03:08:43.197Z,15.72
2022-07-26T03:09:43.187Z,15.72
2022-07-26T03:10:43.182Z,15.55
2022-07-26T03:11:43.175Z,15.55
2022-07-26T03:12:43.194Z,15.49
2022-07-26T03:13:43.174Z,15.51
2022-07-26T03:14:43.156Z,15.51
2022-07-26T03:15:43.190Z,15.43
2022-07-26T03:16:43.139Z,15.39
2022-07-26T03:17:43.153Z,15.33
2022-07-26T03:18:43.129Z,15.35
2022-07-26T03:19:43.115Z,15.31
2022-07-26T03:20:43.108Z,15.19
2022-07-26T03:21:43.101Z,15.27
2022-07-26T03:22:43.113Z,15.19
2022-07-26T03:23:43.080Z,15.22
2022-07-26T03:24:43.077Z,15.21
2022-07-26T03:25:43.069Z,15.29
2022-07-26T03:26:43.061Z,15.22
2022-07-26T03:27:43.079Z,15.22
2022-07-26T03:28:43.048Z,15.27
2022-07-26T03:29:43.039Z,15.28
2022-07-26T03:30:43.058Z,15.31
2022-07-26T03:31:43.024Z,15.36
2022-07-26T03:32:43.050Z,15.35
2022-07-26T03:33:43.011Z,15.40
2022-07-26T03:34:43.006Z,15.31
2022-07-26T03:35:42.998Z,15.33
2022-07-26T03:36:42.987Z,15.37
2022-07-26T03:37:45.100Z,15.37
2022-07-26T03:38:42.968Z,15.37
2022-07-26T03:39:42.961Z,15.37
2022-07-26T03:40:42.957Z,15.25
2022-07-26T03:41:42.946Z,15.33
2022-07-26T03:42:42.969Z,15.25
2022-07-26T03:43:42.927Z,15.19
2022-07-26T03:44:42.917Z,15.15
2022-07-26T03:45:42.937Z,15.24
2022-07-26T03:46:42.944Z,15.18
2022-07-26T03:47:42.923Z,15.11
2022-07-26T03:48:42.946Z,15.14
2022-07-26T03:49:42.887Z,15.06
2022-07-26T03:50:42.877Z,15.10
2022-07-26T03:51:42.864Z,15.15
2022-07-26T03:52:42.881Z,15.03
2022-07-26T03:53:42.856Z,15.06
2022-07-26T03:54:42.842Z,15.10
2022-07-26T03:55:42.846Z,15.11
2022-07-26T03:56:42.831Z,15.09
2022-07-26T03:57:42.847Z,15.04
2022-07-26T03:58:42.817Z,15.07
2022-07-26T03:59:42.810Z,15.18
2022-07-26T04:00:42.804Z,15.14
2022-07-26T04:01:42.835Z,15.22
2022-07-26T04:02:42.914Z,15.19
2022-07-26T04:03:47.536Z,15.21
2022-07-26T04:04:44.770Z,15.33
2022-07-26T04:05:49.004Z,15.35
2022-07-26T04:06:43.757Z,15.42
2022-07-26T04:07:42.770Z,15.42
2022-07-26T04:08:42.744Z,15.51
2022-07-26T04:09:42.730Z,15.57
2022-07-26T04:10:42.719Z,15.47
2022-07-26T04:11:42.715Z,15.54
2022-07-26T04:12:42.736Z,15.49
2022-07-26T04:13:42.722Z,15.51
2022-07-26T04:14:42.691Z,15.39
2022-07-26T04:15:42.685Z,15.37
2022-07-26T04:16:43.814Z,15.36
2022-07-26T04:17:43.697Z,15.39
2022-07-26T04:18:42.719Z,15.52
2022-07-26T04:19:42.651Z,15.75
2022-07-26T04:20:42.642Z,15.88
2022-07-26T04:21:42.637Z,16.12
2022-07-26T04:22:42.656Z,16.47
2022-07-26T04:23:45.339Z,17.41
2022-07-26T04:24:43.612Z,18.01
2022-07-26T04:25:42.604Z,18.63
2022-07-26T04:26:42.600Z,19.00
2022-07-26T04:27:42.619Z,19.62
2022-07-26T04:28:42.576Z,20.11
2022-07-26T04:29:43.571Z,20.37
2022-07-26T04:30:42.660Z,20.44
2022-07-26T04:31:42.556Z,20.00
2022-07-26T04:32:42.582Z,19.88
2022-07-26T04:33:42.548Z,19.70
2022-07-26T04:34:42.541Z,19.18
2022-07-26T04:35:42.535Z,18.92
2022-07-26T04:36:42.521Z,18.78
2022-07-26T04:37:42.545Z,18.98
2022-07-26T04:38:42.511Z,19.54
2022-07-26T04:39:42.503Z,20.02
2022-07-26T04:40:42.492Z,20.77
2022-07-26T04:41:42.483Z,21.52
2022-07-26T04:42:42.477Z,22.04
2022-07-26T04:43:42.493Z,22.55
2022-07-26T04:44:42.464Z,22.98
2022-07-26T04:45:42.560Z,23.37
2022-07-26T04:46:45.933Z,23.81
2022-07-26T04:47:42.468Z,23.93
2022-07-26T04:48:42.491Z,24.24
2022-07-26T04:49:42.421Z,24.45
2022-07-26T04:50:42.408Z,24.65
2022-07-26T04:51:42.421Z,24.95
2022-07-26T04:52:42.404Z,25.28
2022-07-26T04:53:42.414Z,25.72
2022-07-26T04:54:42.381Z,25.83
2022-07-26T04:55:42.384Z,25.95
2022-07-26T04:56:42.365Z,26.09
2022-07-26T04:57:42.362Z,26.33
2022-07-26T04:58:42.376Z,26.56
2022-07-26T04:59:42.347Z,26.63
2022-07-26T05:01:08.493Z,26.81
2022-07-26T05:01:44.396Z,26.83
2022-07-26T05:02:42.334Z,26.80
2022-07-26T05:03:42.344Z,26.93
2022-07-26T05:04:42.307Z,27.21
2022-07-26T05:05:42.296Z,27.26
2022-07-26T05:06:42.297Z,27.29
2022-07-26T05:07:42.294Z,27.49
2022-07-26T05:08:42.300Z,27.37
2022-07-26T05:09:42.272Z,27.33
2022-07-26T05:10:44.908Z,27.40
2022-07-26T05:11:42.270Z,27.45
2022-07-26T05:12:42.249Z,27.54
2022-07-26T05:13:42.267Z,27.47
2022-07-26T05:14:42.235Z,27.37
2022-07-26T05:15:42.936Z,27.54
2022-07-26T05:16:44.382Z,27.65
2022-07-26T05:17:42.210Z,27.64
2022-07-26T05:18:48.890Z,27.82
2022-07-26T05:19:48.870Z,28.04
2022-07-26T05:20:44.223Z,28.05
2022-07-26T05:21:42.187Z,28.00
2022-07-26T05:22:42.202Z,28.00
2022-07-26T05:23:42.197Z,28.45
2022-07-26T05:24:42.163Z,28.48
2022-07-26T05:25:42.194Z,28.64
2022-07-26T05:26:42.149Z,28.79
2022-07-26T05:27:42.145Z,29.01
2022-07-26T05:28:42.158Z,28.97
2022-07-26T05:29:42.128Z,29.12
2022-07-26T05:30:42.165Z,29.12
2022-07-26T05:31:42.120Z,29.10
2022-07-26T05:32:42.118Z,29.10
2022-07-26T05:33:42.136Z,29.22
2022-07-26T05:34:42.101Z,29.32
2022-07-26T05:35:42.097Z,29.53
2022-07-26T05:36:42.088Z,29.76
2022-07-26T05:37:42.083Z,29.91
2022-07-26T05:38:42.117Z,30.03
2022-07-26T05:39:42.071Z,30.00
2022-07-26T05:40:44.883Z,30.24
2022-07-26T05:41:43.052Z,30.46
2022-07-26T05:42:42.052Z,30.23
2022-07-26T05:43:42.298Z,30.39
2022-07-26T05:44:43.034Z,30.28
2022-07-26T05:45:42.056Z,30.27
2022-07-26T05:46:42.026Z,30.09
2022-07-26T05:47:42.051Z,30.09
2022-07-26T05:48:42.100Z,30.15
2022-07-26T05:49:42.007Z,30.18
2022-07-26T05:50:42.009Z,30.46
2022-07-26T05:51:42.000Z,30.91
2022-07-26T05:52:41.998Z,30.99
2022-07-26T05:53:42.009Z,30.92
2022-07-26T05:54:41.992Z,30.68
2022-07-26T05:55:41.968Z,30.94
2022-07-26T05:56:41.975Z,30.88
2022-07-26T05:57:41.978Z,30.85
2022-07-26T05:58:41.985Z,30.75
2022-07-26T05:59:41.957Z,30.88
2022-07-26T06:00:45.389Z,30.97
2022-07-26T06:01:42.934Z,31.17
2022-07-26T06:02:42.060Z,30.66
2022-07-26T06:03:41.953Z,30.39
2022-07-26T06:04:42.073Z,30.83
2022-07-26T06:05:41.917Z,30.81
2022-07-26T06:06:41.911Z,30.88
2022-07-26T06:07:41.903Z,30.99
2022-07-26T06:08:41.925Z,31.24
2022-07-26T06:09:41.892Z,31.58
2022-07-26T06:10:41.885Z,31.70
2022-07-26T06:11:41.880Z,31.94
2022-07-26T06:12:41.874Z,32.19
2022-07-26T06:13:41.892Z,32.30
2022-07-26T06:14:41.865Z,32.31
2022-07-26T06:15:41.852Z,32.27
2022-07-26T06:16:41.919Z,32.37
2022-07-26T06:17:41.847Z,32.11
2022-07-26T06:18:41.864Z,31.85
2022-07-26T06:19:47.073Z,31.59
2022-07-26T06:20:43.836Z,31.05
2022-07-26T06:21:41.842Z,30.40
2022-07-26T06:22:41.816Z,30.16
2022-07-26T06:23:41.832Z,29.98
2022-07-26T06:24:41.815Z,29.75
2022-07-26T06:25:41.803Z,29.71
2022-07-26T06:26:41.793Z,29.69
2022-07-26T06:27:41.785Z,29.90
2022-07-26T06:28:41.815Z,30.19
2022-07-26T06:29:41.805Z,29.63
2022-07-26T06:30:41.777Z,28.91
2022-07-26T06:31:41.827Z,28.81
2022-07-26T06:32:41.765Z,28.86
2022-07-26T06:33:41.788Z,29.16
2022-07-26T06:34:41.742Z,28.91
2022-07-26T06:35:41.746Z,28.91
2022-07-26T06:36:41.739Z,29.01
2022-07-26T06:37:41.729Z,29.45
2022-07-26T06:38:41.754Z,29.73
2022-07-26T06:39:41.734Z,29.98
2022-07-26T06:40:41.726Z,29.90
2022-07-26T06:41:41.712Z,30.21
2022-07-26T06:42:41.704Z,30.43
2022-07-26T06:43:41.729Z,30.46
2022-07-26T06:44:41.694Z,31.20
2022-07-26T06:45:41.701Z,32.15
2022-07-26T06:46:41.685Z,33.17
2022-07-26T06:47:41.676Z,33.87
2022-07-26T06:48:41.713Z,33.42
2022-07-26T06:49:42.663Z,33.30
2022-07-26T06:50:41.662Z,33.37
2022-07-26T06:51:41.655Z,32.96
2022-07-26T06:52:41.657Z,32.33
2022-07-26T06:53:42.676Z,31.80
2022-07-26T06:54:41.636Z,30.78
2022-07-26T06:55:41.629Z,30.59
2022-07-26T06:56:41.628Z,30.75
2022-07-26T06:57:45.059Z,31.27
2022-07-26T06:58:42.625Z,31.77
2022-07-26T06:59:41.634Z,30.90
2022-07-26T07:00:41.680Z,29.75
2022-07-26T07:01:57.714Z,28.41
2022-07-26T07:02:42.597Z,28.20
2022-07-26T07:03:41.589Z,28.91
2022-07-26T07:04:41.651Z,29.75
2022-07-26T07:05:44.190Z,30.70
2022-07-26T07:06:42.570Z,31.39
2022-07-26T07:07:42.218Z,31.85
2022-07-26T07:08:41.557Z,32.49
2022-07-26T07:09:41.576Z,32.70
2022-07-26T07:10:41.547Z,32.65
2022-07-26T07:11:41.548Z,32.89
2022-07-26T07:12:41.537Z,33.45
2022-07-26T07:13:41.530Z,33.76
2022-07-26T07:14:41.550Z,34.47
2022-07-26T07:15:41.519Z,33.99
2022-07-26T07:16:41.567Z,33.76
2022-07-26T07:17:41.508Z,33.40
2022-07-26T07:18:41.499Z,32.80
2022-07-26T07:19:41.536Z,33.59
2022-07-26T07:20:41.485Z,33.36
2022-07-26T07:21:41.485Z,32.92
2022-07-26T07:22:41.471Z,32.92
2022-07-26T07:23:42.472Z,32.59
2022-07-26T07:24:41.496Z,32.33
2022-07-26T07:25:41.469Z,32.04
2022-07-26T07:26:41.453Z,31.71
2022-07-26T07:27:41.448Z,31.46
2022-07-26T07:28:41.454Z,32.26
2022-07-26T07:29:42.137Z,32.70
2022-07-26T07:30:41.433Z,33.00
2022-07-26T07:31:48.803Z,32.29
2022-07-26T07:32:42.472Z,32.41
2022-07-26T07:33:52.809Z,32.53
2022-07-26T07:34:42.434Z,33.17
2022-07-26T07:35:41.405Z,33.81
2022-07-26T07:36:41.396Z,33.02
2022-07-26T07:37:53.418Z,33.22
2022-07-26T07:38:42.895Z,33.15
2022-07-26T07:39:42.414Z,33.49
2022-07-26T07:40:41.382Z,32.86
2022-07-26T07:41:41.373Z,32.67
2022-07-26T07:42:41.369Z,31.80
2022-07-26T07:43:41.362Z,31.73
2022-07-26T07:44:41.383Z,32.46
2022-07-26T07:45:41.381Z,32.19
2022-07-26T07:46:41.420Z,32.45
2022-07-26T07:47:41.351Z,33.08
2022-07-26T07:48:46.976Z,33.08
2022-07-26T07:49:43.358Z,32.34
2022-07-26T07:50:41.322Z,31.89
2022-07-26T07:51:41.325Z,31.62
2022-07-26T07:52:41.319Z,31.31
2022-07-26T07:53:41.316Z,31.20
2022-07-26T07:54:42.175Z,29.71
2022-07-26T07:55:43.653Z,28.72
2022-07-26T07:56:42.315Z,28.49
2022-07-26T07:57:41.312Z,29.04
2022-07-26T07:58:41.279Z,29.23
2022-07-26T07:59:42.309Z,29.76
2022-07-26T08:00:41.373Z,30.94
2022-07-26T08:01:41.369Z,31.62
2022-07-26T08:02:41.261Z,31.31
2022-07-26T08:03:41.350Z,31.51
2022-07-26T08:04:41.339Z,31.96
2022-07-26T08:05:41.243Z,32.07
2022-07-26T08:06:41.366Z,31.85
2022-07-26T08:07:41.258Z,31.52
2022-07-26T08:08:41.237Z,30.51
2022-07-26T08:09:43.094Z,29.63
2022-07-26T08:10:43.690Z,28.89
2022-07-26T08:11:43.204Z,28.07
2022-07-26T08:12:42.201Z,27.70
2022-07-26T08:13:45.780Z,27.55
2022-07-26T08:14:43.233Z,27.22
2022-07-26T08:15:41.186Z,26.81
2022-07-26T08:16:41.297Z,26.31
2022-07-26T08:17:41.765Z,26.18
2022-07-26T08:18:55.681Z,25.95
2022-07-26T08:19:43.190Z,25.75
2022-07-26T08:20:41.153Z,26.38
2022-07-26T08:21:41.148Z,27.27
2022-07-26T08:22:41.146Z,28.66
2022-07-26T08:23:41.143Z,30.03
2022-07-26T08:24:41.158Z,30.92
2022-07-26T08:25:55.117Z,31.76
2022-07-26T08:26:43.116Z,31.99
2022-07-26T08:27:41.374Z,32.52
2022-07-26T08:28:48.707Z,32.43
2022-07-26T08:29:43.121Z,32.87
2022-07-26T08:30:41.093Z,33.37
2022-07-26T08:31:41.128Z,33.30
2022-07-26T08:32:41.082Z,32.45
2022-07-26T08:33:45.733Z,31.92
2022-07-26T08:34:42.096Z,31.85
2022-07-26T08:35:41.061Z,31.77
2022-07-26T08:36:54.783Z,32.33
2022-07-26T08:37:43.052Z,31.74
2022-07-26T08:38:41.062Z,30.88
2022-07-26T08:39:41.040Z,29.97
2022-07-26T08:40:41.055Z,29.08
2022-07-26T08:41:41.028Z,28.75
2022-07-26T08:42:41.016Z,28.17
2022-07-26T08:43:51.234Z,27.68
2022-07-26T08:44:42.006Z,28.11
2022-07-26T08:45:41.019Z,28.93
2022-07-26T08:46:41.045Z,29.16
2022-07-26T08:48:00.698Z,28.91
2022-07-26T08:48:43.027Z,28.85
2022-07-26T08:49:40.970Z,28.67
2022-07-26T08:50:41.127Z,28.42
2022-07-26T08:51:40.997Z,28.07
2022-07-26T08:52:41.002Z,28.89
2022-07-26T08:53:40.950Z,29.91
2022-07-26T08:54:40.948Z,29.71
2022-07-26T08:56:08.221Z,29.47
2022-07-26T08:56:42.934Z,29.35
2022-07-26T08:57:40.929Z,29.75
2022-07-26T08:58:41.007Z,29.26
2022-07-26T08:59:40.912Z,28.93
2022-07-26T09:00:41.001Z,28.84
2022-07-26T09:01:40.904Z,28.85
2022-07-26T09:02:40.890Z,28.85
2022-07-26T09:03:40.945Z,28.63
2022-07-26T09:04:44.474Z,28.23
2022-07-26T09:05:41.896Z,27.86
2022-07-26T09:06:40.869Z,27.64
2022-07-26T09:07:40.852Z,27.59
2022-07-26T09:08:40.860Z,27.25
2022-07-26T09:09:40.843Z,27.08
2022-07-26T09:10:40.852Z,26.78
2022-07-26T09:11:40.830Z,26.63
2022-07-26T09:12:40.824Z,26.53
2022-07-26T09:13:40.807Z,26.25
2022-07-26T09:14:40.804Z,26.21
2022-07-26T09:15:40.817Z,25.93
2022-07-26T09:16:40.829Z,25.50
2022-07-26T09:17:40.788Z,25.44
2022-07-26T09:18:40.788Z,25.21
2022-07-26T09:19:40.763Z,25.14
2022-07-26T09:20:40.784Z,25.07
2022-07-26T09:21:40.757Z,25.16
2022-07-26T09:22:40.751Z,25.13
2022-07-26T09:23:40.745Z,24.96
2022-07-26T09:24:40.732Z,24.92
2022-07-26T09:25:40.754Z,24.98
2022-07-26T09:26:40.730Z,24.99
2022-07-26T09:27:40.718Z,25.10
2022-07-26T09:28:44.969Z,25.22
2022-07-26T09:29:40.710Z,25.41
2022-07-26T09:30:40.721Z,25.59
2022-07-26T09:31:40.731Z,25.96
2022-07-26T09:32:40.678Z,26.18
2022-07-26T09:33:40.667Z,26.29
2022-07-26T09:34:51.870Z,26.44
2022-07-26T09:35:51.500Z,26.56
2022-07-26T09:36:42.646Z,26.38
2022-07-26T09:37:40.641Z,26.36
2022-07-26T09:38:40.636Z,26.33
2022-07-26T09:39:40.628Z,26.44
2022-07-26T09:40:40.653Z,26.55
2022-07-26T09:41:40.617Z,26.43
2022-07-26T09:42:40.608Z,26.47
2022-07-26T09:43:40.597Z,26.60
2022-07-26T09:44:40.954Z,26.88
2022-07-26T09:45:41.613Z,26.88
2022-07-26T09:46:40.673Z,27.10
2022-07-26T09:47:40.578Z,26.77
2022-07-26T09:49:08.066Z,26.78
2022-07-26T09:49:42.598Z,26.83
2022-07-26T09:50:40.587Z,27.05
2022-07-26T09:51:40.556Z,26.97
2022-07-26T09:52:40.544Z,26.89
2022-07-26T09:53:40.539Z,26.38
2022-07-26T09:54:40.539Z,26.10
2022-07-26T09:55:44.927Z,25.95
2022-07-26T09:56:41.509Z,25.95
2022-07-26T09:57:40.502Z,26.18
2022-07-26T09:58:40.492Z,26.13
2022-07-26T09:59:40.491Z,26.03
2022-07-26T10:00:40.506Z,25.99
2022-07-26T10:01:40.521Z,26.10
2022-07-26T10:02:40.521Z,26.22
2022-07-26T10:03:40.452Z,26.52
2022-07-26T10:04:41.453Z,26.59
2022-07-26T10:05:40.446Z,26.68
2022-07-26T10:06:40.985Z,26.73
2022-07-26T10:07:40.430Z,26.65
2022-07-26T10:08:40.424Z,26.71
2022-07-26T10:09:40.417Z,26.68
2022-07-26T10:10:40.407Z,26.65
2022-07-26T10:11:40.427Z,26.66
2022-07-26T10:12:40.394Z,26.15
2022-07-26T10:13:40.384Z,26.07
2022-07-26T10:14:40.384Z,25.85
2022-07-26T10:15:40.458Z,25.68
2022-07-26T10:16:40.383Z,25.36
2022-07-26T10:17:40.354Z,25.22
2022-07-26T10:18:40.657Z,25.13
2022-07-26T10:19:45.541Z,25.18
2022-07-26T10:20:42.327Z,24.92
2022-07-26T10:21:40.352Z,24.84
2022-07-26T10:22:40.325Z,24.78
2022-07-26T10:23:40.316Z,24.76
2022-07-26T10:24:40.309Z,24.81
2022-07-26T10:25:40.294Z,25.06
2022-07-26T10:26:40.316Z,25.16
2022-07-26T10:27:40.302Z,25.31
2022-07-26T10:28:40.291Z,25.41
2022-07-26T10:29:40.270Z,25.31
2022-07-26T10:30:40.266Z,25.43
2022-07-26T10:31:40.365Z,25.59
2022-07-26T10:32:40.241Z,25.65
2022-07-26T10:33:40.238Z,25.66
2022-07-26T10:34:40.228Z,25.50
2022-07-26T10:35:40.228Z,25.44
2022-07-26T10:36:40.240Z,25.35
2022-07-26T10:37:40.207Z,25.44
2022-07-26T10:38:40.201Z,25.47
2022-07-26T10:39:40.187Z,25.40
2022-07-26T10:40:40.189Z,25.44
2022-07-26T10:41:40.207Z,25.33
2022-07-26T10:42:40.171Z,25.58
2022-07-26T10:43:41.767Z,25.35
2022-07-26T10:44:41.157Z,25.47
2022-07-26T10:45:40.146Z,25.60
2022-07-26T10:46:40.205Z,25.54
2022-07-26T10:47:40.127Z,25.83
2022-07-26T10:48:40.250Z,25.80
2022-07-26T10:49:40.119Z,25.68
2022-07-26T10:50:40.103Z,25.90
2022-07-26T10:51:40.149Z,25.48
2022-07-26T10:52:40.092Z,25.47
2022-07-26T10:53:40.086Z,25.54
2022-07-26T10:54:40.086Z,25.41
2022-07-26T10:55:40.078Z,25.36
2022-07-26T10:56:40.095Z,25.33
2022-07-26T10:57:40.056Z,25.14
2022-07-26T10:58:40.051Z,25.16
2022-07-26T10:59:55.423Z,25.22
2022-07-26T11:00:42.033Z,25.21
2022-07-26T11:01:40.117Z,25.22
2022-07-26T11:02:40.101Z,25.01
2022-07-26T11:03:40.012Z,24.81
2022-07-26T11:04:40.005Z,24.68
2022-07-26T11:05:39.992Z,24.65
2022-07-26T11:06:40.027Z,24.60
2022-07-26T11:07:39.981Z,24.60
2022-07-26T11:08:42.416Z,24.53
2022-07-26T11:09:40.977Z,24.29
2022-07-26T11:10:39.965Z,24.32
2022-07-26T11:11:39.979Z,24.16
2022-07-26T11:12:40.941Z,24.17
2022-07-26T11:13:39.931Z,24.23
2022-07-26T11:14:43.808Z,24.29
2022-07-26T11:15:41.962Z,24.55
2022-07-26T11:16:39.965Z,24.73
2022-07-26T11:17:39.919Z,24.69
2022-07-26T11:18:39.904Z,24.80
2022-07-26T11:19:39.889Z,24.93
2022-07-26T11:20:39.883Z,25.08
2022-07-26T11:21:39.905Z,25.18
2022-07-26T11:22:39.865Z,25.35
2022-07-26T11:23:39.866Z,25.48
2022-07-26T11:24:39.860Z,25.55
2022-07-26T11:25:39.841Z,25.87
2022-07-26T11:26:39.872Z,25.91
2022-07-26T11:27:39.832Z,25.87
2022-07-26T11:28:39.821Z,25.96
2022-07-26T11:29:41.183Z,26.03
2022-07-26T11:30:39.906Z,26.02
2022-07-26T11:31:49.601Z,25.91
2022-07-26T11:32:40.895Z,25.93
2022-07-26T11:33:39.779Z,26.02
2022-07-26T11:34:39.768Z,26.02
2022-07-26T11:35:39.766Z,25.98
2022-07-26T11:36:39.759Z,26.00
2022-07-26T11:37:39.829Z,26.07
2022-07-26T11:38:39.744Z,25.96
2022-07-26T11:39:39.739Z,25.91
2022-07-26T11:40:39.732Z,26.15
2022-07-26T11:41:39.710Z,26.15
2022-07-26T11:42:40.746Z,26.19
2022-07-26T11:43:39.720Z,26.26
2022-07-26T11:44:39.708Z,26.03
2022-07-26T11:45:39.693Z,26.05
2022-07-26T11:46:39.772Z,25.80
2022-07-26T11:47:39.702Z,25.81
2022-07-26T11:48:39.721Z,25.78
2022-07-26T11:50:41.655Z,25.73
2022-07-26T11:51:39.649Z,25.72
2022-07-26T11:52:39.668Z,25.70
2022-07-26T11:53:39.629Z,25.78
2022-07-26T11:54:39.630Z,25.75
2022-07-26T11:55:44.115Z,25.68
2022-07-26T11:56:40.619Z,25.50
2022-07-26T11:57:39.633Z,25.38
2022-07-26T11:58:39.597Z,25.55
2022-07-26T11:59:39.611Z,25.75
2022-07-26T12:00:39.585Z,25.63
2022-07-26T12:01:39.579Z,25.48
2022-07-26T12:02:39.598Z,25.65
2022-07-26T12:03:39.650Z,25.73
2022-07-26T12:04:39.603Z,25.84
2022-07-26T12:05:39.642Z,25.96
2022-07-26T12:06:39.545Z,25.88
2022-07-26T12:07:39.556Z,26.02
2022-07-26T12:08:39.529Z,26.07
2022-07-26T12:09:39.519Z,26.10
2022-07-26T12:10:39.524Z,26.31
2022-07-26T12:11:39.502Z,26.33
2022-07-26T12:12:39.528Z,26.40
2022-07-26T12:13:39.602Z,26.59
2022-07-26T12:14:39.483Z,26.58
2022-07-26T12:15:39.502Z,26.62
2022-07-26T12:16:39.474Z,26.41
2022-07-26T12:17:39.498Z,26.36
2022-07-26T12:18:39.450Z,26.41
2022-07-26T12:19:39.449Z,26.40
2022-07-26T12:20:39.442Z,26.44
2022-07-26T12:21:39.443Z,26.48
2022-07-26T12:22:39.447Z,26.40
2022-07-26T12:23:39.418Z,26.45
2022-07-26T12:24:39.415Z,26.52
2022-07-26T12:25:45.065Z,26.56
2022-07-26T12:26:40.398Z,26.58
2022-07-26T12:27:39.406Z,26.55
2022-07-26T12:28:39.379Z,26.59
2022-07-26T12:29:39.370Z,26.60
2022-07-26T12:30:39.421Z,26.56
2022-07-26T12:31:39.419Z,26.66
2022-07-26T12:32:39.373Z,26.78
2022-07-26T12:33:39.338Z,26.78
2022-07-26T12:34:39.343Z,26.89
2022-07-26T12:35:39.330Z,26.92
2022-07-26T12:36:39.317Z,26.85
2022-07-26T12:37:40.916Z,26.84
2022-07-26T12:38:40.298Z,26.95
2022-07-26T12:39:39.296Z,26.83
2022-07-26T12:40:39.287Z,26.71
2022-07-26T12:41:39.286Z,26.63
2022-07-26T12:42:39.298Z,26.48
2022-07-26T12:43:39.262Z,26.34
2022-07-26T12:44:39.253Z,26.23
2022-07-26T12:45:39.247Z,26.02
2022-07-26T12:46:39.297Z,26.05
2022-07-26T12:47:39.256Z,25.84
2022-07-26T12:48:39.283Z,25.81
2022-07-26T12:49:39.215Z,25.99
2022-07-26T12:50:39.212Z,25.81
2022-07-26T12:51:39.202Z,25.70
2022-07-26T12:52:39.220Z,25.62
2022-07-26T12:53:39.191Z,25.46